sensor_id;sensor_type;location;lat;lon;timestamp;temperature;humidity
33095;DHT22;19459;53.044;8.910;2023-07-30T00:01:12;17.00;99.90
33095;DHT22;19459;53.044;8.910;2023-07-30T00:03:38;17.00;99.90
33095;DHT22;19459;53.044;8.910;2023-07-30T00:06:04;17.00;99.90
33095;DHT22;19459;53.044;8.910;2023-07-30T00:08:30;17.10;99.90
33095;DHT22;19459;53.044;8.910;2023-07-30T00:10:59;17.10;99.90
33095;DHT22;19459;53.044;8.910;2023-07-30T00:13:25;17.10;99.90
33095;DHT22;19459;53.044;8.910;2023-07-30T00:15:51;17.00;99.90
33095;DHT22;19459;53.044;8.910;2023-07-30T00:18:17;17.00;99.90
33095;DHT22;19459;53.044;8.910;2023-07-30T00:20:43;17.00;99.90
33095;DHT22;19459;53.044;8.910;2023-07-30T00:23:09;17.00;99.90
33095;DHT22;19459;53.044;8.910;2023-07-30T00:25:35;16.90;99.90
33095;DHT22;19459;53.044;8.910;2023-07-30T00:28:01;17.00;99.90
33095;DHT22;19459;53.044;8.910;2023-07-30T00:30:27;16.90;99.90
33095;DHT22;19459;53.044;8.910;2023-07-30T00:32:53;16.90;99.90
33095;DHT22;19459;53.044;8.910;2023-07-30T00:35:19;16.90;99.90
33095;DHT22;19459;53.044;8.910;2023-07-30T00:37:45;16.90;99.90
33095;DHT22;19459;53.044;8.910;2023-07-30T00:40:11;16.90;99.90
33095;DHT22;19459;53.044;8.910;2023-07-30T00:42:37;16.90;99.90
33095;DHT22;19459;53.044;8.910;2023-07-30T00:45:03;16.90;99.90
33095;DHT22;19459;53.044;8.910;2023-07-30T00:47:30;16.90;99.90
33095;DHT22;19459;53.044;8.910;2023-07-30T00:49:56;16.90;99.90
33095;DHT22;19459;53.044;8.910;2023-07-30T00:52:23;16.90;99.90
33095;DHT22;19459;53.044;8.910;2023-07-30T00:54:52;16.90;99.90
33095;DHT22;19459;53.044;8.910;2023-07-30T00:57:19;16.80;99.90
33095;DHT22;19459;53.044;8.910;2023-07-30T00:59:46;16.80;99.90
33095;DHT22;19459;53.044;8.910;2023-07-30T01:02:13;16.80;99.90
33095;DHT22;19459;53.044;8.910;2023-07-30T01:04:40;16.80;99.90
33095;DHT22;19459;53.044;8.910;2023-07-30T01:07:06;16.80;99.90
33095;DHT22;19459;53.044;8.910;2023-07-30T01:09:33;16.80;99.90
33095;DHT22;19459;53.044;8.910;2023-07-30T01:12:00;16.70;99.90
33095;DHT22;19459;53.044;8.910;2023-07-30T01:14:27;16.70;99.90
33095;DHT22;19459;53.044;8.910;2023-07-30T01:16:53;16.70;99.90
33095;DHT22;19459;53.044;8.910;2023-07-30T01:19:19;16.70;99.90
33095;DHT22;19459;53.044;8.910;2023-07-30T01:21:45;16.70;99.90
33095;DHT22;19459;53.044;8.910;2023-07-30T01:24:11;16.60;99.90
33095;DHT22;19459;53.044;8.910;2023-07-30T01:26:47;16.60;99.90
33095;DHT22;19459;53.044;8.910;2023-07-30T01:29:22;16.50;99.90
33095;DHT22;19459;53.044;8.910;2023-07-30T01:32:04;16.50;99.90
33095;DHT22;19459;53.044;8.910;2023-07-30T01:34:36;16.50;99.90
33095;DHT22;19459;53.044;8.910;2023-07-30T01:37:05;16.40;99.90
33095;DHT22;19459;53.044;8.910;2023-07-30T01:39:32;16.40;99.90
33095;DHT22;19459;53.044;8.910;2023-07-30T01:41:58;16.30;99.90
33095;DHT22;19459;53.044;8.910;2023-07-30T01:44:24;16.30;99.90
33095;DHT22;19459;53.044;8.910;2023-07-30T01:46:49;16.30;99.90
33095;DHT22;19459;53.044;8.910;2023-07-30T01:49:15;16.30;99.90
33095;DHT22;19459;53.044;8.910;2023-07-30T01:51:41;16.30;99.90
33095;DHT22;19459;53.044;8.910;2023-07-30T01:54:07;16.20;99.90
33095;DHT22;19459;53.044;8.910;2023-07-30T01:56:32;16.20;99.90
33095;DHT22;19459;53.044;8.910;2023-07-30T01:58:58;16.10;99.90
33095;DHT22;19459;53.044;8.910;2023-07-30T02:01:24;16.10;99.90
33095;DHT22;19459;53.044;8.910;2023-07-30T02:03:50;16.00;99.90
33095;DHT22;19459;53.044;8.910;2023-07-30T02:06:15;16.00;99.90
33095;DHT22;19459;53.044;8.910;2023-07-30T02:08:41;16.00;99.90
33095;DHT22;19459;53.044;8.910;2023-07-30T02:11:07;16.00;99.90
33095;DHT22;19459;53.044;8.910;2023-07-30T02:13:33;16.00;99.90
33095;DHT22;19459;53.044;8.910;2023-07-30T02:15:58;15.90;99.90
33095;DHT22;19459;53.044;8.910;2023-07-30T02:18:24;15.90;99.90
33095;DHT22;19459;53.044;8.910;2023-07-30T02:20:50;15.80;99.90
33095;DHT22;19459;53.044;8.910;2023-07-30T02:23:16;15.80;99.90
33095;DHT22;19459;53.044;8.910;2023-07-30T02:25:42;15.80;99.90
33095;DHT22;19459;53.044;8.910;2023-07-30T02:28:08;15.80;99.90
33095;DHT22;19459;53.044;8.910;2023-07-30T02:30:34;15.80;99.90
33095;DHT22;19459;53.044;8.910;2023-07-30T02:33:00;15.80;99.90
33095;DHT22;19459;53.044;8.910;2023-07-30T02:35:26;15.80;99.90
33095;DHT22;19459;53.044;8.910;2023-07-30T02:37:52;15.80;99.90
33095;DHT22;19459;53.044;8.910;2023-07-30T02:40:18;15.70;99.90
33095;DHT22;19459;53.044;8.910;2023-07-30T02:42:44;15.80;99.90
33095;DHT22;19459;53.044;8.910;2023-07-30T02:45:10;15.80;99.90
33095;DHT22;19459;53.044;8.910;2023-07-30T02:47:35;15.70;99.90
33095;DHT22;19459;53.044;8.910;2023-07-30T02:50:03;15.70;99.90
33095;DHT22;19459;53.044;8.910;2023-07-30T02:52:29;15.70;99.90
33095;DHT22;19459;53.044;8.910;2023-07-30T02:54:55;15.60;99.90
33095;DHT22;19459;53.044;8.910;2023-07-30T02:57:21;15.60;99.90
33095;DHT22;19459;53.044;8.910;2023-07-30T02:59:47;15.50;99.90
33095;DHT22;19459;53.044;8.910;2023-07-30T03:02:13;15.50;99.90
33095;DHT22;19459;53.044;8.910;2023-07-30T03:04:38;15.50;99.90
33095;DHT22;19459;53.044;8.910;2023-07-30T03:07:04;15.50;99.90
33095;DHT22;19459;53.044;8.910;2023-07-30T03:09:30;15.50;99.90
33095;DHT22;19459;53.044;8.910;2023-07-30T03:11:56;15.50;99.90
33095;DHT22;19459;53.044;8.910;2023-07-30T03:14:22;15.50;99.90
33095;DHT22;19459;53.044;8.910;2023-07-30T03:16:48;15.50;99.90
33095;DHT22;19459;53.044;8.910;2023-07-30T03:19:15;15.50;99.90
33095;DHT22;19459;53.044;8.910;2023-07-30T03:21:41;15.50;99.90
33095;DHT22;19459;53.044;8.910;2023-07-30T03:24:07;15.50;99.90
33095;DHT22;19459;53.044;8.910;2023-07-30T03:26:33;15.40;99.90
33095;DHT22;19459;53.044;8.910;2023-07-30T03:28:59;15.40;99.90
33095;DHT22;19459;53.044;8.910;2023-07-30T03:31:25;15.50;99.90
33095;DHT22;19459;53.044;8.910;2023-07-30T03:33:51;15.50;99.90
33095;DHT22;19459;53.044;8.910;2023-07-30T03:36:17;15.50;99.90
33095;DHT22;19459;53.044;8.910;2023-07-30T03:38:43;15.50;99.90
33095;DHT22;19459;53.044;8.910;2023-07-30T03:41:10;15.50;99.90
33095;DHT22;19459;53.044;8.910;2023-07-30T03:43:36;15.40;99.90
33095;DHT22;19459;53.044;8.910;2023-07-30T03:46:02;15.50;99.90
33095;DHT22;19459;53.044;8.910;2023-07-30T03:48:29;15.40;99.90
33095;DHT22;19459;53.044;8.910;2023-07-30T03:50:55;15.40;99.90
33095;DHT22;19459;53.044;8.910;2023-07-30T03:53:21;15.40;99.90
33095;DHT22;19459;53.044;8.910;2023-07-30T03:55:47;15.40;99.90
33095;DHT22;19459;53.044;8.910;2023-07-30T03:58:14;15.40;99.90
33095;DHT22;19459;53.044;8.910;2023-07-30T04:00:40;15.40;99.90
33095;DHT22;19459;53.044;8.910;2023-07-30T04:03:06;15.40;99.90
33095;DHT22;19459;53.044;8.910;2023-07-30T04:05:32;15.40;99.90
33095;DHT22;19459;53.044;8.910;2023-07-30T04:07:57;15.40;99.90
33095;DHT22;19459;53.044;8.910;2023-07-30T04:10:23;15.40;99.90
33095;DHT22;19459;53.044;8.910;2023-07-30T04:12:49;15.30;99.90
33095;DHT22;19459;53.044;8.910;2023-07-30T04:15:16;15.40;99.90
33095;DHT22;19459;53.044;8.910;2023-07-30T04:17:42;15.40;99.90
33095;DHT22;19459;53.044;8.910;2023-07-30T04:20:09;15.30;99.90
33095;DHT22;19459;53.044;8.910;2023-07-30T04:22:36;15.30;99.90
33095;DHT22;19459;53.044;8.910;2023-07-30T04:25:02;15.30;99.90
33095;DHT22;19459;53.044;8.910;2023-07-30T04:27:28;15.30;99.90
33095;DHT22;19459;53.044;8.910;2023-07-30T04:29:54;15.30;99.90
33095;DHT22;19459;53.044;8.910;2023-07-30T04:32:20;15.40;99.90
33095;DHT22;19459;53.044;8.910;2023-07-30T04:34:46;15.40;99.90
33095;DHT22;19459;53.044;8.910;2023-07-30T04:37:12;15.40;99.90
33095;DHT22;19459;53.044;8.910;2023-07-30T04:39:37;15.40;99.90
33095;DHT22;19459;53.044;8.910;2023-07-30T04:42:03;15.40;99.90
33095;DHT22;19459;53.044;8.910;2023-07-30T04:44:30;15.40;99.90
33095;DHT22;19459;53.044;8.910;2023-07-30T04:46:56;15.40;99.90
33095;DHT22;19459;53.044;8.910;2023-07-30T04:49:21;15.40;99.90
33095;DHT22;19459;53.044;8.910;2023-07-30T04:51:47;15.40;99.90
33095;DHT22;19459;53.044;8.910;2023-07-30T04:54:13;15.40;99.90
33095;DHT22;19459;53.044;8.910;2023-07-30T04:56:39;15.40;99.90
33095;DHT22;19459;53.044;8.910;2023-07-30T04:59:05;15.40;99.90
33095;DHT22;19459;53.044;8.910;2023-07-30T05:01:30;15.50;99.90
33095;DHT22;19459;53.044;8.910;2023-07-30T05:03:57;15.50;99.90
33095;DHT22;19459;53.044;8.910;2023-07-30T05:06:23;15.50;99.90
33095;DHT22;19459;53.044;8.910;2023-07-30T05:08:48;15.50;99.90
33095;DHT22;19459;53.044;8.910;2023-07-30T05:11:14;15.50;99.90
33095;DHT22;19459;53.044;8.910;2023-07-30T05:13:40;15.50;99.90
33095;DHT22;19459;53.044;8.910;2023-07-30T05:16:06;15.50;99.90
33095;DHT22;19459;53.044;8.910;2023-07-30T05:18:32;15.50;99.90
33095;DHT22;19459;53.044;8.910;2023-07-30T05:20:58;15.60;99.90
33095;DHT22;19459;53.044;8.910;2023-07-30T05:23:23;15.70;99.90
33095;DHT22;19459;53.044;8.910;2023-07-30T05:25:49;15.70;99.90
33095;DHT22;19459;53.044;8.910;2023-07-30T05:28:15;15.70;99.90
33095;DHT22;19459;53.044;8.910;2023-07-30T05:30:41;15.80;99.90
33095;DHT22;19459;53.044;8.910;2023-07-30T05:33:07;15.90;99.90
33095;DHT22;19459;53.044;8.910;2023-07-30T05:35:33;16.00;99.90
33095;DHT22;19459;53.044;8.910;2023-07-30T05:37:59;16.00;99.90
33095;DHT22;19459;53.044;8.910;2023-07-30T05:40:25;16.20;99.90
33095;DHT22;19459;53.044;8.910;2023-07-30T05:42:51;16.20;99.90
33095;DHT22;19459;53.044;8.910;2023-07-30T05:45:17;16.40;99.90
33095;DHT22;19459;53.044;8.910;2023-07-30T05:47:42;16.40;99.90
33095;DHT22;19459;53.044;8.910;2023-07-30T05:50:08;16.50;99.90
33095;DHT22;19459;53.044;8.910;2023-07-30T05:52:34;16.50;99.90
33095;DHT22;19459;53.044;8.910;2023-07-30T05:55:00;16.40;99.90
33095;DHT22;19459;53.044;8.910;2023-07-30T05:57:26;16.30;99.90
33095;DHT22;19459;53.044;8.910;2023-07-30T05:59:52;16.40;99.90
33095;DHT22;19459;53.044;8.910;2023-07-30T06:02:18;16.30;99.90
33095;DHT22;19459;53.044;8.910;2023-07-30T06:04:44;16.30;99.90
33095;DHT22;19459;53.044;8.910;2023-07-30T06:07:10;16.30;99.90
33095;DHT22;19459;53.044;8.910;2023-07-30T06:09:36;16.30;99.90
33095;DHT22;19459;53.044;8.910;2023-07-30T06:12:02;16.30;99.90
33095;DHT22;19459;53.044;8.910;2023-07-30T06:14:28;16.30;99.90
33095;DHT22;19459;53.044;8.910;2023-07-30T06:16:54;16.40;99.90
33095;DHT22;19459;53.044;8.910;2023-07-30T06:19:20;16.50;99.90
33095;DHT22;19459;53.044;8.910;2023-07-30T06:21:46;16.60;99.90
33095;DHT22;19459;53.044;8.910;2023-07-30T06:24:12;16.70;99.90
33095;DHT22;19459;53.044;8.910;2023-07-30T06:26:38;16.70;99.90
33095;DHT22;19459;53.044;8.910;2023-07-30T06:29:04;16.80;99.90
33095;DHT22;19459;53.044;8.910;2023-07-30T06:31:29;16.80;99.90
33095;DHT22;19459;53.044;8.910;2023-07-30T06:33:55;16.90;99.90
33095;DHT22;19459;53.044;8.910;2023-07-30T06:36:21;16.90;99.90
33095;DHT22;19459;53.044;8.910;2023-07-30T06:38:47;17.00;99.90
33095;DHT22;19459;53.044;8.910;2023-07-30T06:41:14;17.10;99.90
33095;DHT22;19459;53.044;8.910;2023-07-30T06:43:40;17.20;99.90
33095;DHT22;19459;53.044;8.910;2023-07-30T06:46:05;17.20;99.90
33095;DHT22;19459;53.044;8.910;2023-07-30T06:48:31;17.30;99.90
33095;DHT22;19459;53.044;8.910;2023-07-30T06:50:57;17.30;99.90
33095;DHT22;19459;53.044;8.910;2023-07-30T06:53:23;17.30;99.90
33095;DHT22;19459;53.044;8.910;2023-07-30T06:55:48;17.30;99.90
33095;DHT22;19459;53.044;8.910;2023-07-30T06:58:14;17.40;99.90
33095;DHT22;19459;53.044;8.910;2023-07-30T07:00:40;17.50;99.90
33095;DHT22;19459;53.044;8.910;2023-07-30T07:03:06;17.70;99.90
33095;DHT22;19459;53.044;8.910;2023-07-30T07:05:32;17.80;99.90
33095;DHT22;19459;53.044;8.910;2023-07-30T07:07:58;17.90;99.90
33095;DHT22;19459;53.044;8.910;2023-07-30T07:10:23;17.90;99.90
33095;DHT22;19459;53.044;8.910;2023-07-30T07:12:50;18.00;99.90
33095;DHT22;19459;53.044;8.910;2023-07-30T07:15:16;18.00;99.90
33095;DHT22;19459;53.044;8.910;2023-07-30T07:17:42;18.00;99.90
33095;DHT22;19459;53.044;8.910;2023-07-30T07:20:08;18.00;99.90
33095;DHT22;19459;53.044;8.910;2023-07-30T07:22:34;18.00;99.90
33095;DHT22;19459;53.044;8.910;2023-07-30T07:25:00;18.10;99.90
33095;DHT22;19459;53.044;8.910;2023-07-30T07:27:25;18.00;99.90
33095;DHT22;19459;53.044;8.910;2023-07-30T07:29:52;18.00;99.90
33095;DHT22;19459;53.044;8.910;2023-07-30T07:32:18;17.90;99.90
33095;DHT22;19459;53.044;8.910;2023-07-30T07:34:48;17.90;99.90
33095;DHT22;19459;53.044;8.910;2023-07-30T07:37:15;18.00;99.90
33095;DHT22;19459;53.044;8.910;2023-07-30T07:39:42;18.10;99.90
33095;DHT22;19459;53.044;8.910;2023-07-30T07:42:09;18.10;99.90
33095;DHT22;19459;53.044;8.910;2023-07-30T07:44:35;18.20;99.90
33095;DHT22;19459;53.044;8.910;2023-07-30T07:47:01;18.40;99.90
33095;DHT22;19459;53.044;8.910;2023-07-30T07:49:27;18.60;99.90
33095;DHT22;19459;53.044;8.910;2023-07-30T07:51:53;18.70;99.90
33095;DHT22;19459;53.044;8.910;2023-07-30T07:54:21;18.80;99.90
33095;DHT22;19459;53.044;8.910;2023-07-30T07:56:47;18.80;99.90
33095;DHT22;19459;53.044;8.910;2023-07-30T07:59:13;18.90;99.90
33095;DHT22;19459;53.044;8.910;2023-07-30T08:01:39;19.00;99.90
33095;DHT22;19459;53.044;8.910;2023-07-30T08:04:05;19.10;99.90
33095;DHT22;19459;53.044;8.910;2023-07-30T08:06:33;19.30;99.90
33095;DHT22;19459;53.044;8.910;2023-07-30T08:08:59;19.60;99.90
33095;DHT22;19459;53.044;8.910;2023-07-30T08:11:25;19.60;99.90
33095;DHT22;19459;53.044;8.910;2023-07-30T08:13:51;19.50;99.90
33095;DHT22;19459;53.044;8.910;2023-07-30T08:16:16;19.50;99.90
33095;DHT22;19459;53.044;8.910;2023-07-30T08:18:42;19.40;99.90
33095;DHT22;19459;53.044;8.910;2023-07-30T08:21:08;19.40;99.90
33095;DHT22;19459;53.044;8.910;2023-07-30T08:23:34;19.50;99.90
33095;DHT22;19459;53.044;8.910;2023-07-30T08:26:00;19.40;99.90
33095;DHT22;19459;53.044;8.910;2023-07-30T08:28:25;19.50;99.90
33095;DHT22;19459;53.044;8.910;2023-07-30T08:31:00;19.60;99.90
33095;DHT22;19459;53.044;8.910;2023-07-30T08:33:27;19.60;99.90
33095;DHT22;19459;53.044;8.910;2023-07-30T08:35:56;19.80;99.90
33095;DHT22;19459;53.044;8.910;2023-07-30T08:38:23;19.80;99.90
33095;DHT22;19459;53.044;8.910;2023-07-30T08:40:49;19.80;99.90
33095;DHT22;19459;53.044;8.910;2023-07-30T08:43:15;19.70;99.90
33095;DHT22;19459;53.044;8.910;2023-07-30T08:45:43;19.60;99.90
33095;DHT22;19459;53.044;8.910;2023-07-30T08:48:09;19.60;99.90
33095;DHT22;19459;53.044;8.910;2023-07-30T08:50:39;19.70;99.90
33095;DHT22;19459;53.044;8.910;2023-07-30T08:53:05;19.60;99.90
33095;DHT22;19459;53.044;8.910;2023-07-30T08:55:33;19.80;99.90
33095;DHT22;19459;53.044;8.910;2023-07-30T08:58:04;20.00;99.90
33095;DHT22;19459;53.044;8.910;2023-07-30T09:00:32;20.00;99.90
33095;DHT22;19459;53.044;8.910;2023-07-30T09:03:00;20.00;99.90
33095;DHT22;19459;53.044;8.910;2023-07-30T09:05:29;20.10;99.90
33095;DHT22;19459;53.044;8.910;2023-07-30T09:07:56;20.00;99.90
33095;DHT22;19459;53.044;8.910;2023-07-30T09:10:23;19.90;99.90
33095;DHT22;19459;53.044;8.910;2023-07-30T09:12:58;19.90;99.90
33095;DHT22;19459;53.044;8.910;2023-07-30T09:15:32;19.90;99.90
33095;DHT22;19459;53.044;8.910;2023-07-30T09:18:00;20.00;99.90
33095;DHT22;19459;53.044;8.910;2023-07-30T09:20:26;20.10;99.90
33095;DHT22;19459;53.044;8.910;2023-07-30T09:22:55;20.40;99.90
33095;DHT22;19459;53.044;8.910;2023-07-30T09:25:21;20.30;99.90
33095;DHT22;19459;53.044;8.910;2023-07-30T09:27:49;20.30;99.90
33095;DHT22;19459;53.044;8.910;2023-07-30T09:30:22;20.20;99.90
33095;DHT22;19459;53.044;8.910;2023-07-30T09:32:57;20.30;99.90
33095;DHT22;19459;53.044;8.910;2023-07-30T09:35:24;20.20;99.90
33095;DHT22;19459;53.044;8.910;2023-07-30T09:37:58;20.00;99.90
33095;DHT22;19459;53.044;8.910;2023-07-30T09:40:32;19.80;99.90
33095;DHT22;19459;53.044;8.910;2023-07-30T09:42:58;19.80;99.90
33095;DHT22;19459;53.044;8.910;2023-07-30T09:45:25;19.60;99.90
33095;DHT22;19459;53.044;8.910;2023-07-30T09:47:53;19.50;99.90
33095;DHT22;19459;53.044;8.910;2023-07-30T09:50:21;19.70;99.90
33095;DHT22;19459;53.044;8.910;2023-07-30T09:52:47;19.70;99.90
33095;DHT22;19459;53.044;8.910;2023-07-30T09:55:15;19.70;99.90
33095;DHT22;19459;53.044;8.910;2023-07-30T09:57:41;19.70;99.90
33095;DHT22;19459;53.044;8.910;2023-07-30T10:00:08;19.80;99.90
33095;DHT22;19459;53.044;8.910;2023-07-30T10:02:39;19.80;99.90
33095;DHT22;19459;53.044;8.910;2023-07-30T10:05:27;19.90;99.90
33095;DHT22;19459;53.044;8.910;2023-07-30T10:07:58;19.90;99.90
33095;DHT22;19459;53.044;8.910;2023-07-30T10:10:29;19.90;99.90
33095;DHT22;19459;53.044;8.910;2023-07-30T10:13:01;19.90;99.90
33095;DHT22;19459;53.044;8.910;2023-07-30T10:15:34;20.10;99.90
33095;DHT22;19459;53.044;8.910;2023-07-30T10:18:01;20.10;99.90
33095;DHT22;19459;53.044;8.910;2023-07-30T10:20:27;20.10;99.90
33095;DHT22;19459;53.044;8.910;2023-07-30T10:23:00;20.00;99.90
33095;DHT22;19459;53.044;8.910;2023-07-30T10:25:49;20.10;99.90
33095;DHT22;19459;53.044;8.910;2023-07-30T10:31:06;20.20;99.90
33095;DHT22;19459;53.044;8.910;2023-07-30T10:33:51;20.10;99.90
33095;DHT22;19459;53.044;8.910;2023-07-30T10:36:31;20.40;99.90
33095;DHT22;19459;53.044;8.910;2023-07-30T10:39:14;20.40;99.90
33095;DHT22;19459;53.044;8.910;2023-07-30T10:41:45;20.50;99.90
33095;DHT22;19459;53.044;8.910;2023-07-30T10:44:26;20.70;99.90
33095;DHT22;19459;53.044;8.910;2023-07-30T10:46:57;20.40;99.90
33095;DHT22;19459;53.044;8.910;2023-07-30T10:49:30;20.60;99.90
33095;DHT22;19459;53.044;8.910;2023-07-30T10:52:01;20.50;99.90
33095;DHT22;19459;53.044;8.910;2023-07-30T10:54:33;20.60;99.90
33095;DHT22;19459;53.044;8.910;2023-07-30T10:57:00;20.70;99.90
33095;DHT22;19459;53.044;8.910;2023-07-30T10:59:39;20.90;99.90
33095;DHT22;19459;53.044;8.910;2023-07-30T11:02:06;20.90;99.90
33095;DHT22;19459;53.044;8.910;2023-07-30T11:04:35;21.00;99.90
33095;DHT22;19459;53.044;8.910;2023-07-30T11:07:01;21.00;99.90
33095;DHT22;19459;53.044;8.910;2023-07-30T11:09:28;21.40;99.90
33095;DHT22;19459;53.044;8.910;2023-07-30T11:11:55;21.40;99.90
33095;DHT22;19459;53.044;8.910;2023-07-30T11:14:24;21.80;99.90
33095;DHT22;19459;53.044;8.910;2023-07-30T11:16:54;21.80;99.90
33095;DHT22;19459;53.044;8.910;2023-07-30T11:19:27;22.10;99.90
33095;DHT22;19459;53.044;8.910;2023-07-30T11:21:55;22.30;99.90
33095;DHT22;19459;53.044;8.910;2023-07-30T11:24:35;22.20;99.90
33095;DHT22;19459;53.044;8.910;2023-07-30T11:27:02;22.00;99.90
33095;DHT22;19459;53.044;8.910;2023-07-30T11:29:28;21.80;99.90
33095;DHT22;19459;53.044;8.910;2023-07-30T11:31:58;21.60;99.90
33095;DHT22;19459;53.044;8.910;2023-07-30T11:34:26;21.60;99.90
33095;DHT22;19459;53.044;8.910;2023-07-30T11:36:53;21.50;99.90
33095;DHT22;19459;53.044;8.910;2023-07-30T11:39:19;21.70;99.90
33095;DHT22;19459;53.044;8.910;2023-07-30T11:41:45;21.50;99.90
33095;DHT22;19459;53.044;8.910;2023-07-30T11:44:34;21.20;99.90
33095;DHT22;19459;53.044;8.910;2023-07-30T11:47:04;21.10;99.90
33095;DHT22;19459;53.044;8.910;2023-07-30T11:49:30;21.20;99.90
33095;DHT22;19459;53.044;8.910;2023-07-30T11:52:06;21.30;99.90
33095;DHT22;19459;53.044;8.910;2023-07-30T11:54:36;21.10;99.90
33095;DHT22;19459;53.044;8.910;2023-07-30T11:57:02;21.00;99.90
33095;DHT22;19459;53.044;8.910;2023-07-30T11:59:30;21.00;99.90
33095;DHT22;19459;53.044;8.910;2023-07-30T12:01:57;20.90;99.90
33095;DHT22;19459;53.044;8.910;2023-07-30T12:04:23;20.90;99.90
33095;DHT22;19459;53.044;8.910;2023-07-30T12:06:51;20.70;99.90
33095;DHT22;19459;53.044;8.910;2023-07-30T12:09:23;20.40;99.90
33095;DHT22;19459;53.044;8.910;2023-07-30T12:14:24;20.40;99.90
33095;DHT22;19459;53.044;8.910;2023-07-30T12:16:55;20.50;99.90
33095;DHT22;19459;53.044;8.910;2023-07-30T12:19:22;20.60;99.90
33095;DHT22;19459;53.044;8.910;2023-07-30T12:21:47;20.50;99.90
33095;DHT22;19459;53.044;8.910;2023-07-30T12:24:13;20.30;99.90
33095;DHT22;19459;53.044;8.910;2023-07-30T12:26:39;20.20;99.90
33095;DHT22;19459;53.044;8.910;2023-07-30T12:29:05;20.00;99.90
33095;DHT22;19459;53.044;8.910;2023-07-30T12:31:30;19.30;99.90
33095;DHT22;19459;53.044;8.910;2023-07-30T12:33:56;18.40;99.90
33095;DHT22;19459;53.044;8.910;2023-07-30T12:36:22;17.70;99.90
33095;DHT22;19459;53.044;8.910;2023-07-30T12:38:48;17.50;99.90
33095;DHT22;19459;53.044;8.910;2023-07-30T12:41:13;17.30;99.90
33095;DHT22;19459;53.044;8.910;2023-07-30T12:43:39;16.90;99.90
33095;DHT22;19459;53.044;8.910;2023-07-30T12:46:05;16.80;99.90
33095;DHT22;19459;53.044;8.910;2023-07-30T12:48:31;16.80;99.90
33095;DHT22;19459;53.044;8.910;2023-07-30T12:50:57;16.80;99.90
33095;DHT22;19459;53.044;8.910;2023-07-30T12:53:23;17.10;99.90
33095;DHT22;19459;53.044;8.910;2023-07-30T12:55:49;17.60;99.90
33095;DHT22;19459;53.044;8.910;2023-07-30T12:58:16;18.40;99.90
33095;DHT22;19459;53.044;8.910;2023-07-30T13:00:42;18.90;99.90
33095;DHT22;19459;53.044;8.910;2023-07-30T13:03:08;19.20;99.90
33095;DHT22;19459;53.044;8.910;2023-07-30T13:05:34;19.80;99.90
33095;DHT22;19459;53.044;8.910;2023-07-30T13:07:59;19.90;99.90
33095;DHT22;19459;53.044;8.910;2023-07-30T13:10:28;19.70;99.90
33095;DHT22;19459;53.044;8.910;2023-07-30T13:12:54;19.30;99.90
33095;DHT22;19459;53.044;8.910;2023-07-30T13:15:20;19.00;99.90
33095;DHT22;19459;53.044;8.910;2023-07-30T13:17:45;18.60;99.90
33095;DHT22;19459;53.044;8.910;2023-07-30T13:20:11;18.60;99.90
33095;DHT22;19459;53.044;8.910;2023-07-30T13:22:37;18.50;99.90
33095;DHT22;19459;53.044;8.910;2023-07-30T13:25:03;18.50;99.90
33095;DHT22;19459;53.044;8.910;2023-07-30T13:27:29;18.40;99.90
33095;DHT22;19459;53.044;8.910;2023-07-30T13:29:55;18.40;99.90
33095;DHT22;19459;53.044;8.910;2023-07-30T13:32:21;18.40;99.90
33095;DHT22;19459;53.044;8.910;2023-07-30T13:34:47;18.40;99.90
33095;DHT22;19459;53.044;8.910;2023-07-30T13:37:13;18.20;99.90
33095;DHT22;19459;53.044;8.910;2023-07-30T13:39:39;18.20;99.90
33095;DHT22;19459;53.044;8.910;2023-07-30T13:42:05;18.20;99.90
33095;DHT22;19459;53.044;8.910;2023-07-30T13:44:31;18.30;99.90
33095;DHT22;19459;53.044;8.910;2023-07-30T13:46:57;18.60;99.90
33095;DHT22;19459;53.044;8.910;2023-07-30T13:49:23;18.50;99.90
33095;DHT22;19459;53.044;8.910;2023-07-30T13:51:49;18.70;99.90
33095;DHT22;19459;53.044;8.910;2023-07-30T13:54:14;18.90;99.90
33095;DHT22;19459;53.044;8.910;2023-07-30T13:56:40;19.20;99.90
33095;DHT22;19459;53.044;8.910;2023-07-30T13:59:06;19.50;99.90
33095;DHT22;19459;53.044;8.910;2023-07-30T14:01:32;19.90;99.90
33095;DHT22;19459;53.044;8.910;2023-07-30T14:03:58;19.90;99.90
33095;DHT22;19459;53.044;8.910;2023-07-30T14:06:23;20.30;99.90
33095;DHT22;19459;53.044;8.910;2023-07-30T14:08:49;20.80;99.90
33095;DHT22;19459;53.044;8.910;2023-07-30T14:11:15;21.00;99.90
33095;DHT22;19459;53.044;8.910;2023-07-30T14:13:41;20.60;99.90
33095;DHT22;19459;53.044;8.910;2023-07-30T14:16:07;20.90;99.90
33095;DHT22;19459;53.044;8.910;2023-07-30T14:18:33;21.20;99.90
33095;DHT22;19459;53.044;8.910;2023-07-30T14:20:58;21.00;99.90
33095;DHT22;19459;53.044;8.910;2023-07-30T14:23:24;20.80;99.90
33095;DHT22;19459;53.044;8.910;2023-07-30T14:25:50;21.20;99.90
33095;DHT22;19459;53.044;8.910;2023-07-30T14:28:16;21.50;99.90
33095;DHT22;19459;53.044;8.910;2023-07-30T14:30:42;21.70;99.90
33095;DHT22;19459;53.044;8.910;2023-07-30T14:33:10;22.20;99.90
33095;DHT22;19459;53.044;8.910;2023-07-30T14:35:36;22.40;99.90
33095;DHT22;19459;53.044;8.910;2023-07-30T14:38:04;22.30;99.90
33095;DHT22;19459;53.044;8.910;2023-07-30T14:40:30;22.20;99.90
33095;DHT22;19459;53.044;8.910;2023-07-30T14:42:56;22.20;99.90
33095;DHT22;19459;53.044;8.910;2023-07-30T14:45:22;21.70;99.90
33095;DHT22;19459;53.044;8.910;2023-07-30T14:47:48;21.70;99.90
33095;DHT22;19459;53.044;8.910;2023-07-30T14:50:13;21.50;99.90
33095;DHT22;19459;53.044;8.910;2023-07-30T14:52:39;21.60;99.90
33095;DHT22;19459;53.044;8.910;2023-07-30T14:55:05;21.30;99.90
33095;DHT22;19459;53.044;8.910;2023-07-30T14:57:31;21.20;99.90
33095;DHT22;19459;53.044;8.910;2023-07-30T14:59:58;21.10;99.90
33095;DHT22;19459;53.044;8.910;2023-07-30T15:02:26;21.00;99.90
33095;DHT22;19459;53.044;8.910;2023-07-30T15:04:53;21.00;99.90
33095;DHT22;19459;53.044;8.910;2023-07-30T15:07:19;20.80;99.90
33095;DHT22;19459;53.044;8.910;2023-07-30T15:09:45;20.90;99.90
33095;DHT22;19459;53.044;8.910;2023-07-30T15:12:12;20.60;99.90
33095;DHT22;19459;53.044;8.910;2023-07-30T15:14:38;20.20;99.90
33095;DHT22;19459;53.044;8.910;2023-07-30T15:17:04;19.80;99.90
33095;DHT22;19459;53.044;8.910;2023-07-30T15:19:30;19.50;99.90
33095;DHT22;19459;53.044;8.910;2023-07-30T15:21:56;18.80;99.90
33095;DHT22;19459;53.044;8.910;2023-07-30T15:24:22;18.50;99.90
33095;DHT22;19459;53.044;8.910;2023-07-30T15:26:48;18.10;99.90
33095;DHT22;19459;53.044;8.910;2023-07-30T15:29:13;17.90;99.90
33095;DHT22;19459;53.044;8.910;2023-07-30T15:31:42;17.90;99.90
33095;DHT22;19459;53.044;8.910;2023-07-30T15:34:10;17.90;99.90